createdAt,value
2022-11-28T00:01:29.571Z,106.97
2022-11-28T00:03:57.682Z,92.82
2022-11-28T00:06:27.464Z,89.50
2022-11-28T00:08:58.249Z,79.40
2022-11-28T00:11:26.719Z,83.72
2022-11-28T00:13:54.778Z,79.00
2022-11-28T00:16:23.648Z,85.80
2022-11-28T00:18:54.195Z,84.95
2022-11-28T00:21:22.288Z,88.35
2022-11-28T00:23:50.835Z,85.12
2022-11-28T00:26:29.411Z,86.22
2022-11-28T00:28:59.077Z,87.08
2022-11-28T00:31:30.657Z,89.58
2022-11-28T00:34:01.033Z,85.15
2022-11-28T00:36:32.837Z,85.50
2022-11-28T00:39:00.460Z,94.47
2022-11-28T00:41:41.167Z,92.42
2022-11-28T00:44:13.377Z,103.12
2022-11-28T00:46:41.787Z,103.97
2022-11-28T00:49:09.690Z,108.95
2022-11-28T00:51:37.852Z,102.95
2022-11-28T00:54:06.569Z,99.87
2022-11-28T00:56:37.956Z,178.95
2022-11-28T00:59:06.745Z,153.53
2022-11-28T01:01:41.694Z,94.32
2022-11-28T01:04:13.624Z,91.63
2022-11-28T01:06:49.222Z,91.28
2022-11-28T01:09:21.615Z,103.97
2022-11-28T01:11:53.069Z,86.65
2022-11-28T01:14:25.351Z,89.25
2022-11-28T01:16:53.319Z,90.92
2022-11-28T01:19:21.187Z,91.05
2022-11-28T01:21:49.718Z,98.45
2022-11-28T01:24:17.992Z,89.10
2022-11-28T01:26:45.929Z,93.85
2022-11-28T01:29:13.949Z,101.72
2022-11-28T01:31:41.816Z,94.22
2022-11-28T01:34:09.506Z,98.47
2022-11-28T01:36:37.245Z,87.35
2022-11-28T01:39:06.111Z,85.62
2022-11-28T01:41:33.977Z,87.42
2022-11-28T01:44:06.821Z,87.53
2022-11-28T01:46:35.721Z,89.83
2022-11-28T01:49:17.447Z,91.78
2022-11-28T01:51:53.545Z,93.50
2022-11-28T01:54:24.758Z,90.50
2022-11-28T01:57:00.425Z,86.90
2022-11-28T01:59:33.672Z,87.78
2022-11-28T02:02:05.013Z,80.90
2022-11-28T02:04:34.249Z,85.53
2022-11-28T02:07:02.027Z,78.62
2022-11-28T02:09:29.791Z,79.30
2022-11-28T02:12:15.172Z,78.37
2022-11-28T02:15:09.384Z,80.28
2022-11-28T02:18:14.311Z,79.95
2022-11-28T02:21:25.618Z,73.67
2022-11-28T02:24:07.682Z,74.90
2022-11-28T02:27:01.658Z,76.57
2022-11-28T02:29:47.016Z,79.45
2022-11-28T02:32:26.101Z,74.42
2022-11-28T02:35:37.418Z,75.05
2022-11-28T02:38:31.347Z,71.05
2022-11-28T02:41:04.502Z,69.50
2022-11-28T02:43:52.305Z,75.60
2022-11-28T02:46:46.909Z,76.87
2022-11-28T02:49:22.567Z,75.40
2022-11-28T02:51:58.023Z,77.45
2022-11-28T02:54:27.258Z,84.55
2022-11-28T02:56:55.372Z,79.37
2022-11-28T02:59:42.906Z,84.32
2022-11-28T03:02:22.451Z,80.00
2022-11-28T03:05:19.766Z,75.37
2022-11-28T03:08:19.062Z,78.30
2022-11-28T03:11:17.396Z,76.75
2022-11-28T03:13:59.785Z,88.47
2022-11-28T03:16:32.959Z,106.72
2022-11-28T03:19:23.794Z,80.95
2022-11-28T03:22:08.960Z,73.72
2022-11-28T03:24:54.459Z,78.62
2022-11-28T03:27:35.891Z,72.27
2022-11-28T03:30:19.088Z,77.67
2022-11-28T03:32:50.759Z,78.12
2022-11-28T03:35:23.581Z,76.00
2022-11-28T03:37:55.426Z,78.78
2022-11-28T03:40:28.277Z,78.55
2022-11-28T03:43:04.291Z,78.22
2022-11-28T03:45:45.393Z,76.45
2022-11-28T03:48:21.451Z,85.42
2022-11-28T03:50:59.565Z,77.95
2022-11-28T03:53:38.830Z,78.45
2022-11-28T03:56:23.116Z,79.27
2022-11-28T03:58:58.612Z,81.32
2022-11-28T04:01:37.270Z,77.12
2022-11-28T04:04:34.611Z,81.15
2022-11-28T04:07:10.251Z,85.97
2022-11-28T04:09:48.730Z,87.12
2022-11-28T04:12:36.129Z,82.95
2022-11-28T04:15:14.982Z,70.57
2022-11-28T04:17:50.925Z,78.22
2022-11-28T04:20:27.057Z,74.95
2022-11-28T04:23:00.310Z,83.27
2022-11-28T04:25:31.745Z,77.12
2022-11-28T04:28:04.976Z,80.47
2022-11-28T04:30:34.120Z,104.03
2022-11-28T04:33:06.113Z,90.87
2022-11-28T04:35:38.225Z,94.92
2022-11-28T04:38:09.363Z,163.12
2022-11-28T04:40:42.416Z,185.97
2022-11-28T04:43:15.769Z,131.75
2022-11-28T04:45:54.994Z,114.17
2022-11-28T04:48:23.790Z,93.75
2022-11-28T04:51:30.844Z,103.17
2022-11-28T04:54:29.700Z,108.65
2022-11-28T04:57:35.072Z,111.92
2022-11-28T05:00:13.264Z,103.17
2022-11-28T05:02:44.025Z,93.92
2022-11-28T05:05:19.715Z,89.17
2022-11-28T05:07:48.313Z,88.00
2022-11-28T05:10:16.612Z,84.60
2022-11-28T05:12:44.310Z,72.53
2022-11-28T05:15:12.357Z,76.60
2022-11-28T05:17:42.485Z,74.65
2022-11-28T05:20:10.470Z,74.75
2022-11-28T05:22:39.817Z,78.02
2022-11-28T05:25:08.516Z,66.97
2022-11-28T05:27:36.334Z,73.97
2022-11-28T05:30:06.567Z,72.95
2022-11-28T05:32:35.850Z,74.80
2022-11-28T05:35:17.068Z,75.90
2022-11-28T05:37:59.021Z,75.85
2022-11-28T05:40:28.291Z,90.30
2022-11-28T05:43:05.826Z,82.70
2022-11-28T05:45:41.232Z,76.00
2022-11-28T05:48:09.297Z,102.17
2022-11-28T05:50:40.785Z,70.20
2022-11-28T05:53:11.624Z,60.38
2022-11-28T05:55:40.668Z,59.55
2022-11-28T05:58:08.652Z,57.85
2022-11-28T06:00:37.319Z,46.88
2022-11-28T06:03:05.624Z,50.15
2022-11-28T06:05:42.632Z,53.08
2022-11-28T06:08:03.111Z,54.93
2022-11-28T06:10:31.137Z,52.78
2022-11-28T06:12:59.134Z,59.85
2022-11-28T06:15:27.101Z,58.42
2022-11-28T06:17:55.989Z,68.17
2022-11-28T06:20:24.475Z,63.73
2022-11-28T06:22:52.664Z,68.35
2022-11-28T06:25:20.669Z,72.95
2022-11-28T06:27:50.221Z,63.73
2022-11-28T06:30:18.118Z,69.62
2022-11-28T06:32:46.186Z,85.67
2022-11-28T06:35:14.281Z,89.45
2022-11-28T06:37:42.160Z,66.07
2022-11-28T06:40:10.647Z,75.25
2022-11-28T06:42:38.584Z,71.67
2022-11-28T06:45:08.803Z,73.05
2022-11-28T06:47:36.535Z,79.00
2022-11-28T06:50:05.593Z,78.60
2022-11-28T06:52:34.237Z,77.67
2022-11-28T06:55:04.968Z,77.70
2022-11-28T07:00:34.749Z,73.37
2022-11-28T07:03:02.736Z,68.72
2022-11-28T07:05:30.730Z,75.15
2022-11-28T07:07:58.792Z,66.75
2022-11-28T07:10:28.981Z,65.62
2022-11-28T07:13:04.947Z,57.43
2022-11-28T07:15:29.734Z,56.68
2022-11-28T07:17:57.730Z,54.58
2022-11-28T07:20:25.616Z,49.40
2022-11-28T07:22:53.482Z,50.25
2022-11-28T07:25:23.335Z,46.92
2022-11-28T07:27:51.511Z,54.27
2022-11-28T07:30:19.805Z,54.38
2022-11-28T07:32:47.429Z,59.85
2022-11-28T07:35:15.474Z,60.33
2022-11-28T07:37:43.425Z,61.45
2022-11-28T07:40:12.998Z,61.08
2022-11-28T07:42:40.874Z,64.67
2022-11-28T07:45:11.208Z,62.95
2022-11-28T07:47:39.087Z,68.57
2022-11-28T07:50:08.311Z,55.90
2022-11-28T07:52:36.277Z,59.60
2022-11-28T07:55:04.704Z,53.52
2022-11-28T07:57:32.992Z,55.25
2022-11-28T08:00:02.871Z,51.75
2022-11-28T08:02:33.893Z,55.83
2022-11-28T08:05:02.750Z,50.48
2022-11-28T08:07:30.735Z,53.25
2022-11-28T08:10:10.629Z,51.42
2022-11-28T08:12:48.733Z,57.10
2022-11-28T08:15:22.338Z,47.25
2022-11-28T08:17:52.882Z,52.65
2022-11-28T08:20:21.064Z,55.58
2022-11-28T08:22:51.393Z,54.03
2022-11-28T08:25:22.323Z,51.30
2022-11-28T08:27:50.472Z,46.85
2022-11-28T08:30:26.231Z,44.48
2022-11-28T08:33:01.470Z,47.05
2022-11-28T08:35:34.687Z,42.98
2022-11-28T08:38:04.655Z,38.35
2022-11-28T08:40:44.828Z,40.38
2022-11-28T08:43:31.851Z,36.95
2022-11-28T08:46:15.336Z,34.38
2022-11-28T08:52:05.196Z,32.58
2022-11-28T08:54:34.726Z,31.15
2022-11-28T08:57:02.615Z,30.72
2022-11-28T08:59:30.495Z,27.62
2022-11-28T09:01:58.401Z,27.70
2022-11-28T09:04:26.485Z,27.60
2022-11-28T09:06:54.566Z,26.77
2022-11-28T09:09:22.697Z,27.87
2022-11-28T09:11:51.665Z,30.60
2022-11-28T09:14:19.808Z,25.82
2022-11-28T09:16:47.817Z,28.47
2022-11-28T09:19:15.757Z,30.10
2022-11-28T09:21:43.592Z,29.02
2022-11-28T09:24:13.283Z,26.57
2022-11-28T09:26:41.959Z,31.27
2022-11-28T09:29:10.028Z,39.45
2022-11-28T09:31:38.706Z,29.42
2022-11-28T09:34:08.704Z,25.02
2022-11-28T09:36:36.582Z,25.45
2022-11-28T09:39:04.441Z,26.00
2022-11-28T09:41:46.339Z,24.35
2022-11-28T09:44:36.385Z,26.37
2022-11-28T09:47:09.613Z,28.87
2022-11-28T09:49:48.670Z,20.70
2022-11-28T09:53:12.658Z,21.30
2022-11-28T09:55:50.709Z,20.40
2022-11-28T09:58:40.540Z,20.15
2022-11-28T10:01:16.719Z,21.75
2022-11-28T10:04:04.958Z,18.80
2022-11-28T10:07:08.249Z,22.82
2022-11-28T10:10:04.397Z,16.35
2022-11-28T10:13:11.129Z,16.15
2022-11-28T10:18:36.828Z,21.23
2022-11-28T10:21:36.790Z,20.92
2022-11-28T10:24:29.099Z,20.05
2022-11-28T10:27:06.095Z,15.38
2022-11-28T10:29:42.626Z,16.02
2022-11-28T10:32:21.263Z,19.37
2022-11-28T10:35:16.971Z,17.80
2022-11-28T10:37:44.879Z,18.35
2022-11-28T10:40:36.697Z,17.67
2022-11-28T10:43:46.084Z,17.25
2022-11-28T10:46:43.297Z,12.43
2022-11-28T10:49:47.375Z,15.95
2022-11-28T10:52:48.636Z,13.53
2022-11-28T10:55:42.378Z,18.70
2022-11-28T10:58:18.841Z,15.75
2022-11-28T11:00:50.764Z,13.18
2022-11-28T11:03:20.986Z,17.65
2022-11-28T11:05:48.506Z,15.98
2022-11-28T11:08:28.953Z,14.68
2022-11-28T11:11:18.993Z,12.05
2022-11-28T11:14:06.523Z,16.42
2022-11-28T11:16:50.698Z,15.95
2022-11-28T11:19:36.070Z,16.62
2022-11-28T11:22:25.543Z,19.80
2022-11-28T11:25:19.309Z,13.60
2022-11-28T11:27:52.165Z,20.32
2022-11-28T11:30:32.215Z,15.38
2022-11-28T11:33:04.044Z,12.55
2022-11-28T11:35:40.711Z,14.63
2022-11-28T11:38:37.484Z,11.28
2022-11-28T11:41:31.551Z,13.50
2022-11-28T11:44:17.428Z,10.82
2022-11-28T11:49:50.983Z,19.98
2022-11-28T11:52:25.722Z,25.45
2022-11-28T11:55:11.035Z,25.50
2022-11-28T11:57:50.447Z,29.18
2022-11-28T12:00:27.196Z,25.52
2022-11-28T12:02:59.766Z,26.52
2022-11-28T12:05:52.389Z,29.23
2022-11-28T12:08:30.910Z,34.88
2022-11-28T12:11:24.820Z,31.82
2022-11-28T12:13:53.877Z,26.00
2022-11-28T12:16:42.547Z,25.35
2022-11-28T12:19:16.211Z,42.95
2022-11-28T12:22:27.961Z,25.68
2022-11-28T12:25:39.300Z,27.10
2022-11-28T12:28:32.654Z,34.25
2022-11-28T12:31:08.860Z,51.45
2022-11-28T12:33:54.528Z,30.05
2022-11-28T12:36:30.725Z,39.78
2022-11-28T12:39:43.942Z,52.48
2022-11-28T12:42:29.255Z,54.85
2022-11-28T12:45:17.445Z,22.80
2022-11-28T12:48:10.822Z,26.55
2022-11-28T12:51:11.140Z,21.97
2022-11-28T12:54:17.938Z,20.12
2022-11-28T12:57:07.861Z,19.95
2022-11-28T12:59:44.808Z,14.90
2022-11-28T13:02:47.161Z,13.93
2022-11-28T13:05:55.549Z,19.90
2022-11-28T13:08:50.168Z,17.25
2022-11-28T13:11:41.801Z,16.52
2022-11-28T13:14:24.073Z,19.77
2022-11-28T13:16:57.052Z,25.55
2022-11-28T13:19:43.533Z,35.05
2022-11-28T13:22:16.144Z,46.37
2022-11-28T13:25:00.034Z,43.75
2022-11-28T13:27:36.648Z,37.85
2022-11-28T13:30:16.136Z,45.45
2022-11-28T13:33:16.740Z,59.38
2022-11-28T13:35:46.632Z,62.17
2022-11-28T13:38:38.433Z,74.27
2022-11-28T13:43:53.329Z,63.40
2022-11-28T13:46:23.595Z,61.68
2022-11-28T13:49:14.211Z,70.15
2022-11-28T13:51:37.222Z,48.35
2022-11-28T13:54:25.850Z,56.08
2022-11-28T13:57:14.623Z,60.10
2022-11-28T13:59:51.067Z,66.45
2022-11-28T14:02:27.818Z,49.25
2022-11-28T14:04:56.730Z,48.35
2022-11-28T14:07:30.190Z,43.40
2022-11-28T14:10:31.339Z,80.17
2022-11-28T14:13:42.839Z,101.85
2022-11-28T14:16:35.375Z,79.97
2022-11-28T14:19:39.540Z,61.05
2022-11-28T14:22:49.208Z,98.60
2022-11-28T14:25:24.394Z,124.15
2022-11-28T14:28:00.156Z,145.28
2022-11-28T14:33:08.048Z,145.65
2022-11-28T14:36:05.401Z,136.50
2022-11-28T14:41:12.536Z,106.90
2022-11-28T14:43:47.064Z,86.32
2022-11-28T14:46:36.494Z,76.85
2022-11-28T14:49:20.946Z,59.13
2022-11-28T14:52:16.012Z,71.22
2022-11-28T14:54:41.623Z,98.70
2022-11-28T14:57:24.653Z,142.22
2022-11-28T14:59:57.787Z,178.97
2022-11-28T15:03:00.355Z,136.47
2022-11-28T15:05:55.950Z,118.65
2022-11-28T15:08:57.014Z,153.42
2022-11-28T15:12:21.651Z,147.00
2022-11-28T15:14:54.324Z,134.95
2022-11-28T15:17:27.945Z,140.43
2022-11-28T15:19:59.053Z,132.15
2022-11-28T15:22:34.810Z,140.00
2022-11-28T15:25:03.150Z,133.35
2022-11-28T15:27:31.261Z,121.10
2022-11-28T15:30:01.079Z,116.53
2022-11-28T15:32:31.872Z,106.90
2022-11-28T15:35:10.907Z,113.32
2022-11-28T15:37:35.508Z,114.65
2022-11-28T16:48:18.583Z,90.67
2022-11-28T16:51:14.860Z,107.45
2022-11-28T16:56:49.626Z,87.02
2022-11-28T16:59:28.817Z,83.58
2022-11-28T17:01:59.555Z,96.32
2022-11-28T17:04:30.328Z,111.22
2022-11-28T17:07:02.183Z,124.47
2022-11-28T17:09:29.977Z,117.72
2022-11-28T17:12:07.631Z,128.25
2022-11-28T17:14:37.213Z,128.25
2022-11-28T17:17:16.576Z,139.62
2022-11-28T17:19:45.508Z,159.12
2022-11-28T17:22:17.750Z,162.18
2022-11-28T17:24:48.323Z,175.32
2022-11-28T17:27:16.950Z,164.13
2022-11-28T17:29:45.168Z,159.45
2022-11-28T17:32:14.252Z,144.47
2022-11-28T17:34:42.949Z,127.30
2022-11-28T17:37:10.746Z,137.97
2022-11-28T17:39:38.375Z,110.83
2022-11-28T17:42:06.481Z,89.87
2022-11-28T17:44:37.135Z,83.75
2022-11-28T17:47:05.845Z,76.12
2022-11-28T17:49:33.913Z,77.58
2022-11-28T17:52:01.969Z,75.12
2022-11-28T17:54:30.142Z,67.32
2022-11-28T17:56:57.954Z,66.50
2022-11-28T17:59:26.519Z,58.60
2022-11-28T18:01:54.515Z,57.27
2022-11-28T18:04:25.464Z,71.50
2022-11-28T18:06:53.233Z,75.78
2022-11-28T18:09:21.163Z,83.47
2022-11-28T18:11:52.976Z,84.50
2022-11-28T18:14:22.092Z,80.47
2022-11-28T18:16:50.331Z,81.42
2022-11-28T18:19:19.026Z,79.62
2022-11-28T18:21:47.406Z,79.47
2022-11-28T18:24:16.590Z,66.67
2022-11-28T18:26:44.649Z,56.13
2022-11-28T18:29:14.290Z,53.80
2022-11-28T18:31:42.749Z,43.65
2022-11-28T18:34:11.408Z,43.35
2022-11-28T18:36:40.753Z,42.88
2022-11-28T18:39:13.670Z,47.53
2022-11-28T18:41:42.695Z,42.53
2022-11-28T18:44:11.272Z,37.45
2022-11-28T18:46:39.664Z,39.33
2022-11-28T18:49:07.803Z,38.85
2022-11-28T18:51:35.465Z,40.55
2022-11-28T18:54:05.812Z,36.45
2022-11-28T18:56:35.439Z,35.38
2022-11-28T18:59:03.865Z,35.35
2022-11-28T19:01:34.517Z,36.77
2022-11-28T19:04:10.583Z,33.28
2022-11-28T19:06:58.431Z,40.45
2022-11-28T19:09:26.360Z,53.95
2022-11-28T19:11:54.991Z,68.17
2022-11-28T19:14:27.255Z,72.00
2022-11-28T19:16:56.274Z,47.35
2022-11-28T19:19:24.663Z,44.40
2022-11-28T19:21:54.393Z,42.70
2022-11-28T19:24:22.293Z,37.35
2022-11-28T19:26:50.558Z,40.92
2022-11-28T19:29:18.631Z,42.33
2022-11-28T19:31:46.484Z,39.42
2022-11-28T19:34:17.935Z,42.55
2022-11-28T19:36:50.462Z,45.70
2022-11-28T19:39:22.605Z,47.62
2022-11-28T19:41:53.504Z,34.75
2022-11-28T19:44:26.480Z,35.80
2022-11-28T19:46:55.906Z,41.65
2022-11-28T19:49:28.777Z,36.73
2022-11-28T19:51:56.516Z,42.03
2022-11-28T19:54:24.975Z,47.48
2022-11-28T19:56:54.387Z,49.00
2022-11-28T19:59:22.986Z,50.95
2022-11-28T20:01:52.294Z,47.45
2022-11-28T20:04:20.411Z,53.30
2022-11-28T20:06:50.048Z,47.25
2022-11-28T20:09:18.042Z,50.23
2022-11-28T20:11:47.789Z,51.33
2022-11-28T20:14:19.099Z,50.20
2022-11-28T20:16:47.637Z,48.60
2022-11-28T20:19:18.511Z,52.25
2022-11-28T20:21:49.334Z,55.30
2022-11-28T20:24:17.019Z,46.13
2022-11-28T20:26:46.054Z,43.13
2022-11-28T20:29:17.159Z,41.05
2022-11-28T20:31:47.478Z,44.10
2022-11-28T20:34:18.916Z,36.63
2022-11-28T20:36:52.140Z,38.60
2022-11-28T20:39:20.446Z,36.00
2022-11-28T20:41:48.291Z,33.95
2022-11-28T20:44:17.269Z,30.97
2022-11-28T20:46:45.884Z,36.42
2022-11-28T20:49:14.886Z,32.35
2022-11-28T20:51:42.787Z,28.65
2022-11-28T20:54:12.718Z,27.90
2022-11-28T20:57:12.719Z,27.13
2022-11-28T20:59:16.556Z,28.47
2022-11-28T21:01:44.647Z,33.30
2022-11-28T21:04:15.306Z,36.77
2022-11-28T21:06:44.134Z,42.48
2022-11-28T21:09:12.350Z,33.38
2022-11-28T21:14:09.551Z,29.35
2022-11-28T21:16:37.302Z,25.62
2022-11-28T21:19:08.464Z,26.52
2022-11-28T21:21:39.285Z,22.93
2022-11-28T21:24:11.719Z,25.10
2022-11-28T21:26:45.359Z,28.92
2022-11-28T21:29:12.242Z,24.40
2022-11-28T21:31:43.187Z,24.18
2022-11-28T21:34:15.928Z,21.75
2022-11-28T21:36:46.088Z,22.63
2022-11-28T21:39:18.180Z,21.35
2022-11-28T21:41:45.970Z,19.50
2022-11-28T21:44:14.133Z,18.37
2022-11-28T21:46:41.966Z,19.00
2022-11-28T21:49:09.937Z,19.70
2022-11-28T21:51:39.793Z,16.75
2022-11-28T21:54:10.485Z,22.15
2022-11-28T21:56:38.348Z,19.55
2022-11-28T21:59:06.432Z,14.47
2022-11-28T22:01:34.351Z,15.85
2022-11-28T22:04:03.354Z,17.70
2022-11-28T22:06:32.592Z,16.20
2022-11-28T22:09:08.794Z,16.30
2022-11-28T22:11:32.588Z,17.52
2022-11-28T22:14:00.013Z,15.50
2022-11-28T22:16:29.401Z,16.37
2022-11-28T22:18:59.779Z,17.30
2022-11-28T22:23:58.547Z,19.32
2022-11-28T22:26:26.140Z,18.32
2022-11-28T22:28:54.206Z,18.80
2022-11-28T22:31:23.725Z,16.52
2022-11-28T22:33:51.981Z,15.35
2022-11-28T22:36:22.360Z,15.85
2022-11-28T22:38:56.461Z,14.75
2022-11-28T22:41:29.387Z,17.15
2022-11-28T22:43:59.687Z,19.55
2022-11-28T22:46:28.475Z,17.98
2022-11-28T22:48:57.968Z,14.20
2022-11-28T22:51:27.916Z,15.43
2022-11-28T22:53:58.769Z,13.25
2022-11-28T22:56:28.944Z,15.45
2022-11-28T22:58:58.923Z,13.90
2022-11-28T23:01:30.073Z,14.80
2022-11-28T23:03:58.326Z,19.05
2022-11-28T23:06:30.574Z,24.25
2022-11-28T23:09:00.826Z,27.30
2022-11-28T23:11:32.956Z,28.87
2022-11-28T23:14:02.037Z,24.87
2022-11-28T23:16:37.477Z,25.30
2022-11-28T23:19:12.591Z,24.02
2022-11-28T23:21:43.755Z,19.98
2022-11-28T23:24:18.981Z,18.02
2022-11-28T23:26:47.760Z,20.20
2022-11-28T23:29:16.141Z,17.12
2022-11-28T23:31:46.420Z,18.85
2022-11-28T23:34:15.062Z,15.72
2022-11-28T23:36:46.593Z,18.67
2022-11-28T23:39:22.324Z,20.57
2022-11-28T23:41:50.527Z,19.00
2022-11-28T23:44:21.176Z,20.00
2022-11-28T23:46:50.843Z,19.90
2022-11-28T23:49:18.647Z,21.87
2022-11-28T23:51:46.330Z,26.77
2022-11-28T23:54:14.272Z,27.05
2022-11-28T23:56:43.451Z,25.75
2022-11-28T23:59:12.469Z,32.50
